createdAt,value
2023-02-22T00:02:30.074Z,14.50
2023-02-22T00:05:36.472Z,14.46
2023-02-22T00:08:13.158Z,14.46
2023-02-22T00:10:41.679Z,14.47
2023-02-22T00:13:14.864Z,14.44
2023-02-22T01:38:50.930Z,12.42
2023-02-22T02:31:40.636Z,11.41
2023-02-22T02:34:43.376Z,11.44
2023-02-22T02:37:32.226Z,11.32
2023-02-22T02:40:30.446Z,11.23
2023-02-22T02:44:01.521Z,11.18
2023-02-22T02:46:57.147Z,11.06
2023-02-22T02:50:01.352Z,10.99
2023-02-22T02:55:25.734Z,11.10
2023-02-22T02:57:54.737Z,11.05
2023-02-22T03:00:32.542Z,11.11
2023-02-22T03:03:26.255Z,11.06
2023-02-22T03:06:21.123Z,11.06
2023-02-22T03:09:10.136Z,11.01
2023-02-22T03:12:11.775Z,11.06
2023-02-22T03:14:57.323Z,11.01
2023-02-22T03:17:34.535Z,10.96
2023-02-22T03:20:38.548Z,10.93
2023-02-22T03:23:26.234Z,10.92
2023-02-22T03:26:06.173Z,10.90
2023-02-22T03:28:37.491Z,10.88
2023-02-22T03:31:14.007Z,10.81
2023-02-22T03:33:54.038Z,10.82
2023-02-22T03:36:40.339Z,10.80
2023-02-22T03:39:17.292Z,10.92
2023-02-22T03:41:52.623Z,11.08
2023-02-22T03:44:26.422Z,11.25
2023-02-22T03:46:59.952Z,11.25
2023-02-22T03:49:36.209Z,11.19
2023-02-22T03:52:06.351Z,11.15
2023-02-22T03:54:35.923Z,11.02
2023-02-22T03:57:36.393Z,10.88
2023-02-22T04:00:10.034Z,10.76
2023-02-22T04:02:39.132Z,10.78
2023-02-22T04:05:08.358Z,10.74
2023-02-22T04:07:37.385Z,10.72
2023-02-22T04:10:09.794Z,10.71
2023-02-22T04:12:39.177Z,10.63
2023-02-22T04:15:10.181Z,10.57
2023-02-22T04:17:38.447Z,10.61
2023-02-22T04:20:08.149Z,10.63
2023-02-22T04:22:36.516Z,10.60
2023-02-22T04:25:05.033Z,10.52
2023-02-22T04:27:33.471Z,10.48
2023-02-22T04:30:01.768Z,10.45
2023-02-22T04:32:30.091Z,10.40
2023-02-22T04:34:58.359Z,10.36
2023-02-22T04:37:29.680Z,10.38
2023-02-22T04:39:58.009Z,10.54
2023-02-22T04:42:26.292Z,10.46
2023-02-22T04:44:57.624Z,10.42
2023-02-22T04:47:26.348Z,10.37
2023-02-22T04:49:55.109Z,10.38
2023-02-22T04:52:24.117Z,10.25
2023-02-22T04:54:58.628Z,10.37
2023-02-22T04:57:36.362Z,10.42
2023-02-22T05:00:06.903Z,10.37
2023-02-22T05:02:36.101Z,10.43
2023-02-22T05:05:06.842Z,10.37
2023-02-22T05:08:00.124Z,10.34
2023-02-22T05:10:28.581Z,10.19
2023-02-22T05:15:22.503Z,10.03
2023-02-22T05:17:59.150Z,10.02
2023-02-22T05:20:36.920Z,9.98
2023-02-22T05:23:06.387Z,10.01
2023-02-22T05:26:08.128Z,9.87
2023-02-22T05:28:59.067Z,9.92
2023-02-22T05:31:27.578Z,10.22
2023-02-22T05:33:56.364Z,10.23
2023-02-22T05:36:25.497Z,10.12
2023-02-22T05:39:00.594Z,9.98
2023-02-22T05:41:30.415Z,9.87
2023-02-22T05:43:58.982Z,9.92
2023-02-22T05:46:27.403Z,9.95
2023-02-22T05:48:56.457Z,9.92
2023-02-22T05:52:00.567Z,9.89
2023-02-22T05:54:28.988Z,9.81
2023-02-22T05:57:00.326Z,9.81
2023-02-22T05:59:28.789Z,9.71
2023-02-22T06:02:00.265Z,9.62
2023-02-22T06:04:28.901Z,9.68
2023-02-22T06:06:58.793Z,9.72
2023-02-22T06:09:27.113Z,9.77
2023-02-22T06:11:58.300Z,9.81
2023-02-22T06:14:29.080Z,9.72
2023-02-22T06:16:58.916Z,9.60
2023-02-22T06:19:27.890Z,9.49
2023-02-22T06:22:00.879Z,9.46
2023-02-22T06:24:29.221Z,9.39
2023-02-22T06:26:59.410Z,9.40
2023-02-22T06:29:30.794Z,9.41
2023-02-22T06:31:59.350Z,9.41
2023-02-22T06:34:30.819Z,9.47
2023-02-22T06:37:00.061Z,9.48
2023-02-22T06:39:28.642Z,9.54
2023-02-22T06:41:58.590Z,9.49
2023-02-22T06:44:26.995Z,9.42
2023-02-22T06:47:01.497Z,9.34
2023-02-22T06:49:29.920Z,9.45
2023-02-22T06:51:58.401Z,9.47
2023-02-22T06:54:28.074Z,9.36
2023-02-22T06:56:59.201Z,9.24
2023-02-22T06:59:28.828Z,9.21
2023-02-22T07:01:57.492Z,9.20
2023-02-22T07:04:26.203Z,9.21
2023-02-22T07:06:55.731Z,9.23
2023-02-22T07:09:26.768Z,9.23
2023-02-22T07:11:58.265Z,9.19
2023-02-22T07:14:33.673Z,9.15
2023-02-22T07:17:02.644Z,9.16
2023-02-22T07:19:31.038Z,9.15
2023-02-22T07:22:00.412Z,9.16
2023-02-22T07:24:31.418Z,9.29
2023-02-22T07:27:02.290Z,9.31
2023-02-22T07:29:32.325Z,9.46
2023-02-22T07:32:01.230Z,9.39
2023-02-22T07:34:29.691Z,9.28
2023-02-22T07:37:01.095Z,9.21
2023-02-22T07:39:29.414Z,9.16
2023-02-22T07:41:57.645Z,9.13
2023-02-22T07:44:29.790Z,9.20
2023-02-22T07:46:58.116Z,9.16
2023-02-22T07:49:26.612Z,9.15
2023-02-22T07:51:55.445Z,9.07
2023-02-22T07:54:32.877Z,8.99
2023-02-22T07:57:02.035Z,8.97
2023-02-22T07:59:30.402Z,8.96
2023-02-22T08:01:58.787Z,9.04
2023-02-22T08:04:27.373Z,8.94
2023-02-22T08:06:56.057Z,8.93
2023-02-22T08:09:24.974Z,9.06
2023-02-22T08:11:54.126Z,9.09
2023-02-22T08:14:28.449Z,8.95
2023-02-22T08:16:57.049Z,8.82
2023-02-22T08:19:25.914Z,8.81
2023-02-22T08:21:54.766Z,8.81
2023-02-22T08:24:23.447Z,8.84
2023-02-22T08:26:52.417Z,8.88
2023-02-22T08:29:21.393Z,8.85
2023-02-22T08:31:56.227Z,8.86
2023-02-22T08:34:25.723Z,8.84
2023-02-22T08:36:55.060Z,8.87
2023-02-22T08:39:23.972Z,8.86
2023-02-22T08:41:52.885Z,8.90
2023-02-22T08:44:22.274Z,8.97
2023-02-22T08:46:51.290Z,8.95
2023-02-22T08:49:21.807Z,8.96
2023-02-22T08:51:50.079Z,8.89
2023-02-22T08:54:19.496Z,8.92
2023-02-22T08:56:48.670Z,8.92
2023-02-22T08:59:18.533Z,8.84
2023-02-22T09:01:47.588Z,8.80
2023-02-22T09:04:30.198Z,8.83
2023-02-22T09:06:58.542Z,8.81
2023-02-22T09:09:26.800Z,8.86
2023-02-22T09:11:55.359Z,8.80
2023-02-22T09:14:24.237Z,8.73
2023-02-22T09:16:53.178Z,8.69
2023-02-22T09:19:27.950Z,8.62
2023-02-22T09:21:58.092Z,8.56
2023-02-22T09:24:29.705Z,8.55
2023-02-22T09:26:57.674Z,8.58
2023-02-22T09:29:28.135Z,8.67
2023-02-22T09:31:59.688Z,8.63
2023-02-22T09:34:30.606Z,8.50
2023-02-22T09:36:59.119Z,8.46
2023-02-22T09:39:27.587Z,8.42
2023-02-22T09:42:15.095Z,8.38
2023-02-22T09:44:54.822Z,8.31
2023-02-22T09:47:33.266Z,8.34
2023-02-22T09:50:31.435Z,8.40
2023-02-22T09:53:30.475Z,8.40
2023-02-22T09:56:08.260Z,8.33
2023-02-22T09:58:44.207Z,8.33
2023-02-22T10:01:33.777Z,8.30
2023-02-22T10:04:04.928Z,8.40
2023-02-22T10:06:36.407Z,8.57
2023-02-22T10:09:09.216Z,8.50
2023-02-22T10:11:59.296Z,8.36
2023-02-22T10:14:53.012Z,8.27
2023-02-22T10:17:37.816Z,8.26
2023-02-22T10:20:16.431Z,8.32
2023-02-22T10:23:35.412Z,8.33
2023-02-22T10:26:26.967Z,8.34
2023-02-22T10:29:00.370Z,8.34
2023-02-22T10:31:36.711Z,8.28
2023-02-22T10:34:13.810Z,8.27
2023-02-22T10:36:52.364Z,8.24
2023-02-22T10:39:33.894Z,8.21
2023-02-22T10:42:08.923Z,8.20
2023-02-22T10:44:39.759Z,8.22
2023-02-22T10:47:12.466Z,8.24
2023-02-22T10:49:48.906Z,8.29
2023-02-22T10:52:26.911Z,8.34
2023-02-22T10:55:13.606Z,8.33
2023-02-22T10:57:46.835Z,8.25
2023-02-22T11:00:46.603Z,8.39
2023-02-22T11:03:24.219Z,8.35
2023-02-22T11:05:53.748Z,8.38
2023-02-22T11:08:34.422Z,8.46
2023-02-22T11:11:05.835Z,8.51
2023-02-22T11:13:39.654Z,8.64
2023-02-22T11:16:32.699Z,8.72
2023-02-22T11:19:27.055Z,8.72
2023-02-22T11:22:23.703Z,8.78
2023-02-22T11:25:04.239Z,8.71
2023-02-22T11:27:48.115Z,8.83
2023-02-22T11:30:30.257Z,8.95
2023-02-22T11:33:24.505Z,8.96
2023-02-22T11:35:59.040Z,9.06
2023-02-22T11:38:33.334Z,9.17
2023-02-22T11:41:17.600Z,9.24
2023-02-22T11:43:49.429Z,9.10
2023-02-22T11:46:22.577Z,8.86
2023-02-22T11:49:09.684Z,8.75
2023-02-22T11:52:05.370Z,8.76
2023-02-22T11:54:34.098Z,8.73
2023-02-22T11:57:22.962Z,8.91
2023-02-22T12:00:26.948Z,8.98
2023-02-22T12:03:04.455Z,9.03
2023-02-22T12:06:04.528Z,9.19
2023-02-22T12:08:42.234Z,9.25
2023-02-22T12:11:45.654Z,9.15
2023-02-22T12:14:40.579Z,8.99
2023-02-22T12:17:33.474Z,9.06
2023-02-22T12:20:11.213Z,9.05
2023-02-22T12:22:48.183Z,8.90
2023-02-22T12:25:25.835Z,8.72
2023-02-22T12:27:56.214Z,8.68
2023-02-22T12:30:43.236Z,8.74
2023-02-22T12:33:30.916Z,8.69
2023-02-22T12:36:02.214Z,8.58
2023-02-22T12:38:45.510Z,8.50
2023-02-22T12:44:18.503Z,8.61
2023-02-22T12:46:56.417Z,8.58
2023-02-22T12:49:53.086Z,8.57
2023-02-22T12:52:43.422Z,8.47
2023-02-22T12:55:18.666Z,8.45
2023-02-22T12:58:08.422Z,8.49
2023-02-22T13:00:59.839Z,8.49
2023-02-22T13:03:45.876Z,8.50
2023-02-22T13:06:26.072Z,8.36
2023-02-22T13:09:38.342Z,8.31
2023-02-22T13:12:26.535Z,8.34
2023-02-22T13:15:00.767Z,8.31
2023-02-22T13:17:51.257Z,8.35
2023-02-22T13:20:30.062Z,8.38
2023-02-22T13:23:17.185Z,8.25
2023-02-22T13:26:29.916Z,8.12
2023-02-22T13:29:29.540Z,8.06
2023-02-22T13:32:33.031Z,8.06
2023-02-22T13:36:24.335Z,7.94
2023-02-22T13:39:16.695Z,7.87
2023-02-22T13:42:12.472Z,7.89
2023-02-22T13:45:09.714Z,7.93
2023-02-22T13:47:53.559Z,7.78
2023-02-22T13:50:40.122Z,7.70
2023-02-22T13:54:24.276Z,7.67
2023-02-22T13:57:05.716Z,7.62
2023-02-22T13:59:36.906Z,7.64
2023-02-22T14:02:10.767Z,7.79
2023-02-22T14:04:43.756Z,7.80
2023-02-22T14:07:27.439Z,7.99
2023-02-22T14:10:05.738Z,8.09
2023-02-22T14:12:37.110Z,8.16
2023-02-22T14:15:26.786Z,8.26
2023-02-22T14:18:04.633Z,8.29
2023-02-22T14:20:37.709Z,8.11
2023-02-22T14:23:35.692Z,8.02
2023-02-22T14:26:23.154Z,7.90
2023-02-22T14:29:03.936Z,7.87
2023-02-22T14:31:38.175Z,7.87
2023-02-22T14:34:11.153Z,7.90
2023-02-22T14:36:48.531Z,7.90
2023-02-22T14:39:39.409Z,7.99
2023-02-22T14:42:26.731Z,7.85
2023-02-22T14:45:36.782Z,7.70
2023-02-22T14:48:39.878Z,7.70
2023-02-22T14:51:23.664Z,7.60
2023-02-22T14:53:53.456Z,7.53
2023-02-22T14:56:54.939Z,7.49
2023-02-22T14:59:29.879Z,7.42
2023-02-22T15:02:12.858Z,7.41
2023-02-22T15:04:44.917Z,7.35
2023-02-22T15:07:28.197Z,7.29
2023-02-22T15:10:18.706Z,7.26
2023-02-22T15:13:11.468Z,7.37
2023-02-22T15:15:48.929Z,7.39
2023-02-22T15:18:30.369Z,7.60
2023-02-22T15:21:07.018Z,7.72
2023-02-22T15:23:45.415Z,7.65
2023-02-22T15:26:19.502Z,7.69
2023-02-22T15:28:58.640Z,7.80
2023-02-22T15:31:32.832Z,7.83
2023-02-22T15:34:32.287Z,7.98
2023-02-22T15:37:26.002Z,7.99
2023-02-22T15:40:00.132Z,8.02
2023-02-22T15:42:31.206Z,8.14
2023-02-22T15:44:59.662Z,8.33
2023-02-22T15:47:30.452Z,8.43
2023-02-22T15:50:24.424Z,8.60
2023-02-22T15:53:06.661Z,8.71
2023-02-22T15:55:38.745Z,8.83
2023-02-22T15:58:19.600Z,8.99
2023-02-22T16:01:00.569Z,9.11
2023-02-22T16:03:34.014Z,9.27
2023-02-22T16:06:02.742Z,9.40
2023-02-22T16:08:54.776Z,9.58
2023-02-22T16:11:36.149Z,9.71
2023-02-22T16:14:07.858Z,9.87
2023-02-22T16:16:42.709Z,10.01
2023-02-22T16:19:29.679Z,10.18
2023-02-22T16:22:03.791Z,10.25
2023-02-22T16:24:35.016Z,10.40
2023-02-22T16:27:08.310Z,10.45
2023-02-22T16:29:36.640Z,10.57
2023-02-22T16:32:08.453Z,10.72
2023-02-22T16:34:36.884Z,10.86
2023-02-22T16:37:05.242Z,10.96
2023-02-22T16:39:36.883Z,11.00
2023-02-22T16:42:10.829Z,11.09
2023-02-22T16:44:39.167Z,11.25
2023-02-22T16:47:07.590Z,11.23
2023-02-22T16:49:35.892Z,11.33
2023-02-22T16:52:08.517Z,11.44
2023-02-22T16:54:42.457Z,11.56
2023-02-22T16:57:21.847Z,11.62
2023-02-22T16:59:53.528Z,11.70
2023-02-22T17:02:22.641Z,11.78
2023-02-22T17:04:51.175Z,11.86
2023-02-22T17:07:31.710Z,11.94
2023-02-22T17:10:00.268Z,11.99
2023-02-22T17:12:33.003Z,12.08
2023-02-22T17:15:01.405Z,12.15
2023-02-22T17:17:31.775Z,12.15
2023-02-22T17:20:02.589Z,12.20
2023-02-22T17:22:30.946Z,12.29
2023-02-22T17:24:59.190Z,12.38
2023-02-22T17:27:27.514Z,12.45
2023-02-22T17:29:55.830Z,12.54
2023-02-22T17:32:24.111Z,12.60
2023-02-22T17:34:53.011Z,12.62
2023-02-22T17:37:21.339Z,12.71
2023-02-22T17:39:49.585Z,12.82
2023-02-22T17:42:17.960Z,12.90
2023-02-22T17:44:46.235Z,12.95
2023-02-22T17:47:14.496Z,13.00
2023-02-22T17:49:42.835Z,13.10
2023-02-22T17:52:16.449Z,13.22
2023-02-22T17:54:44.774Z,13.29
2023-02-22T17:57:13.133Z,13.32
2023-02-22T17:59:41.480Z,13.41
2023-02-22T18:02:11.692Z,13.49
2023-02-22T18:04:41.435Z,13.47
2023-02-22T18:07:10.735Z,13.52
2023-02-22T18:09:39.014Z,13.58
2023-02-22T18:12:07.367Z,13.56
2023-02-22T18:14:35.677Z,13.57
2023-02-22T18:17:03.925Z,13.70
2023-02-22T18:19:32.256Z,13.83
2023-02-22T18:22:01.146Z,13.80
2023-02-22T18:24:31.986Z,13.77
2023-02-22T18:27:00.650Z,13.78
2023-02-22T18:29:29.804Z,13.86
2023-02-22T18:31:58.288Z,13.97
2023-02-22T18:34:26.705Z,14.02
2023-02-22T18:36:56.166Z,14.11
2023-02-22T18:39:24.434Z,14.22
2023-02-22T18:41:52.791Z,14.24
2023-02-22T18:44:21.556Z,14.30
2023-02-22T18:46:49.889Z,14.42
2023-02-22T18:49:18.333Z,14.49
2023-02-22T18:51:47.233Z,14.58
2023-02-22T18:54:15.612Z,14.47
2023-02-22T18:56:43.911Z,14.46
2023-02-22T18:59:16.549Z,14.37
2023-02-22T19:01:49.669Z,14.24
2023-02-22T19:04:19.086Z,14.18
2023-02-22T19:06:49.815Z,14.10
2023-02-22T19:09:18.795Z,14.10
2023-02-22T19:11:49.134Z,14.10
2023-02-22T19:14:18.336Z,14.08
2023-02-22T19:16:49.414Z,14.04
2023-02-22T19:19:23.199Z,13.98
2023-02-22T19:21:53.079Z,13.93
2023-02-22T19:24:21.580Z,13.83
2023-02-22T19:26:54.574Z,13.79
2023-02-22T19:29:25.962Z,13.77
2023-02-22T19:31:54.608Z,13.71
2023-02-22T19:34:25.292Z,13.59
2023-02-22T19:36:53.699Z,13.51
2023-02-22T19:41:52.017Z,13.38
2023-02-22T19:44:20.352Z,13.35
2023-02-22T19:46:52.790Z,13.35
2023-02-22T19:49:21.191Z,13.38
2023-02-22T19:51:49.548Z,13.34
2023-02-22T19:54:22.198Z,13.35
2023-02-22T19:56:52.084Z,13.38
2023-02-22T19:59:24.457Z,13.49
2023-02-22T20:01:56.357Z,13.52
2023-02-22T20:04:25.627Z,13.54
2023-02-22T20:06:55.612Z,13.57
2023-02-22T20:09:41.181Z,13.58
2023-02-22T20:12:09.726Z,13.61
2023-02-22T20:14:38.172Z,13.62
2023-02-22T20:17:07.884Z,13.66
2023-02-22T20:19:38.133Z,13.59
2023-02-22T20:22:06.393Z,13.57
2023-02-22T20:24:34.663Z,13.59
2023-02-22T20:27:02.910Z,13.63
2023-02-22T20:29:31.373Z,13.60
2023-02-22T20:32:01.674Z,13.51
2023-02-22T20:34:34.441Z,13.49
2023-02-22T20:37:03.588Z,13.61
2023-02-22T20:39:32.498Z,13.77
2023-02-22T20:45:16.015Z,13.97
2023-02-22T20:47:45.195Z,14.03
2023-02-22T20:52:49.474Z,14.02
2023-02-22T20:58:28.000Z,13.94
